Time;durP1;ratioP1;P1;durP2;ratioP2;P2;SDS_P1;SDS_P2;PMS_P1;PMS_P2;Temp;Humidity;BMP_temperature;BMP_pressure;BME280_temperature;BME280_humidity;BME280_pressure;Samples;Min_cycle;Max_cycle;Signal;HPM_P1;HPM_P2
2023/10/12 00:01:58;;;;;;;17.08;10.40;;;;;;;16.33;94.26;101135.06;4993902;28;20022;-54
2023/10/12 00:04:28;;;;;;;19.67;11.18;;;;;;;16.32;95.09;101141.41;4993160;28;20062;-52
2023/10/12 00:06:54;;;;;;;19.67;11.65;;;;;;;16.33;95.68;101153.81;4996873;28;20041;-50
2023/10/12 00:09:24;;;;;;;19.13;11.50;;;;;;;16.32;96.33;101155.66;4996209;28;20396;-50
2023/10/12 00:11:57;;;;;;;20.88;11.93;;;;;;;16.34;96.47;101160.88;4993979;28;20035;-52
2023/10/12 00:14:24;;;;;;;25.55;12.07;;;;;;;16.33;97.61;101157.34;4997379;28;20147;-50
2023/10/12 00:16:52;;;;;;;18.15;12.35;;;;;;;16.33;97.98;101162.69;4995573;28;20038;-51
2023/10/12 00:19:17;;;;;;;19.30;11.65;;;;;;;16.34;97.87;101153.69;4997469;28;20103;-52
2023/10/12 00:21:43;;;;;;;23.33;12.48;;;;;;;16.34;98.23;101159.03;4994152;28;20445;-51
2023/10/12 00:24:15;;;;;;;18.83;12.40;;;;;;;16.33;99.26;101162.69;4997520;28;20049;-52
2023/10/12 00:26:42;;;;;;;23.58;13.23;;;;;;;16.33;99.78;101168.06;4994706;28;20045;-53
2023/10/12 00:29:08;;;;;;;24.67;13.25;;;;;;;16.32;99.91;101165.53;4995376;28;20105;-53
2023/10/12 00:31:37;;;;;;;20.20;13.20;;;;;;;16.31;100.00;101164.69;4998513;28;20381;-53
2023/10/12 00:34:03;;;;;;;18.70;13.60;;;;;;;16.30;100.00;101168.34;4997394;28;20030;-53
2023/10/12 00:36:29;;;;;;;21.02;13.80;;;;;;;16.29;100.00;101166.69;5000070;28;20395;-55
2023/10/12 00:38:56;;;;;;;24.13;13.98;;;;;;;16.29;100.00;101180.09;4999142;28;20036;-54
2023/10/12 00:41:24;;;;;;;23.83;15.23;;;;;;;16.27;100.00;101180.22;4999516;28;20061;-54
2023/10/12 00:44:09;;;;;;;22.83;14.85;;;;;;;16.27;100.00;101193.63;4998933;28;20117;-53
2023/10/12 00:51:52;;;;;;;25.48;14.80;;;;;;;16.21;100.00;101199.56;4999070;28;20045;-50
2023/10/12 00:54:41;;;;;;;24.17;16.40;;;;;;;16.19;100.00;101203.41;4998385;28;20115;-49
2023/10/12 00:57:08;;;;;;;;;;;;;;;16.27;100.00;101206.19;4998712;28;20096;-50
2023/10/12 00:59:34;;;;;;;26.75;16.08;;;;;;;16.18;100.00;101210.56;4999275;28;19949;-51
2023/10/12 01:02:01;;;;;;;27.42;16.92;;;;;;;16.17;100.00;101208.91;5011120;28;20101;-52
2023/10/12 01:04:27;;;;;;;25.58;17.13;;;;;;;16.14;100.00;101203.81;5003757;28;20059;-50
2023/10/12 01:06:59;;;;;;;23.65;16.45;;;;;;;16.13;100.00;101193.25;5003815;28;20113;-49
2023/10/12 01:09:26;;;;;;;27.55;17.30;;;;;;;16.11;100.00;101196.06;4999598;28;20039;-52
2023/10/12 01:11:58;;;;;;;24.65;16.80;;;;;;;16.09;100.00;101206.09;4996831;28;20018;-51
2023/10/12 01:14:27;;;;;;;27.23;18.90;;;;;;;16.06;100.00;101203.69;4997590;28;20030;-50
2023/10/12 01:16:58;;;;;;;;;;;;;;;16.13;100.00;101210.16;5000879;28;20054;-50
2023/10/12 01:19:26;;;;;;;28.02;18.15;;;;;;;16.05;100.00;101216.25;4999550;28;19921;-51
2023/10/12 01:21:54;;;;;;;27.20;18.70;;;;;;;16.02;100.00;101211.19;5001062;28;20557;-50
2023/10/12 01:24:29;;;;;;;27.80;17.88;;;;;;;16.01;100.00;101205.97;4997982;28;20077;-50
2023/10/12 01:26:55;;;;;;;23.85;17.58;;;;;;;15.98;100.00;101208.94;4999159;28;20261;-52
2023/10/12 01:29:20;;;;;;;27.23;19.17;;;;;;;15.96;100.00;101197.53;5000326;28;20102;-50
2023/10/12 01:34:37;;;;;;;31.38;20.17;;;;;;;15.96;100.00;101192.16;4998337;28;20033;-53
2023/10/12 01:37:21;;;;;;;28.65;18.77;;;;;;;15.96;100.00;101179.59;4998099;28;20430;-53
2023/10/12 01:39:56;;;;;;;32.22;19.50;;;;;;;15.93;100.00;101166.50;5000221;28;20023;-53
2023/10/12 01:42:21;;;;;;;29.60;19.38;;;;;;;15.91;100.00;101166.63;4999534;28;20039;-50
2023/10/12 01:44:47;;;;;;;33.53;19.08;;;;;;;15.91;100.00;101163.13;4995680;28;20080;-52
2023/10/12 01:47:13;;;;;;;30.50;19.40;;;;;;;15.91;100.00;101163.97;5018994;28;20026;-50
2023/10/12 01:49:39;;;;;;;29.27;18.90;;;;;;;15.90;100.00;101164.09;5000370;28;20041;-53
2023/10/12 01:52:08;;;;;;;27.80;19.38;;;;;;;15.90;100.00;101169.47;4998850;28;20030;-50
2023/10/12 01:54:33;;;;;;;28.83;19.98;;;;;;;15.88;100.00;101174.97;4996239;28;20049;-52
2023/10/12 01:56:59;;;;;;;26.23;18.40;;;;;;;15.88;100.00;101176.81;4999247;28;20027;-50
2023/10/12 01:59:25;;;;;;;26.37;18.67;;;;;;;15.86;100.00;101174.28;4998879;28;20764;-51
2023/10/12 02:01:55;;;;;;;32.53;20.92;;;;;;;15.84;100.00;101178.09;4997570;28;20643;-51
2023/10/12 02:04:21;;;;;;;25.40;19.67;;;;;;;15.81;100.00;101165.81;4997846;28;20030;-51
2023/10/12 02:06:47;;;;;;;31.13;19.95;;;;;;;15.80;100.00;101160.59;5000563;28;20029;-50
2023/10/12 02:09:15;;;;;;;32.40;20.63;;;;;;;15.77;100.00;101164.44;4996296;28;20128;-52
2023/10/12 02:11:53;;;;;;;29.30;19.83;;;;;;;15.74;100.00;101170.03;4998574;28;20078;-49
2023/10/12 02:14:31;;;;;;;27.60;20.23;;;;;;;15.71;100.00;101173.00;4999547;28;20045;-50
2023/10/12 02:16:56;;;;;;;28.67;20.33;;;;;;;15.68;100.00;101182.16;4998312;28;20421;-51
2023/10/12 02:19:31;;;;;;;28.02;20.67;;;;;;;15.67;100.00;101187.66;4997208;28;20108;-50
2023/10/12 02:22:01;;;;;;;30.52;20.23;;;;;;;15.64;100.00;101185.28;4996456;28;20117;-51
2023/10/12 02:24:26;;;;;;;30.90;21.85;;;;;;;15.60;100.00;101190.03;4999385;28;20035;-49
2023/10/12 02:26:55;;;;;;;27.25;21.23;;;;;;;15.57;100.00;101165.41;4999034;28;20022;-50
2023/10/12 02:29:20;;;;;;;28.55;21.15;;;;;;;15.55;100.00;101162.84;5006622;28;20030;-50
2023/10/12 02:34:16;;;;;;;26.40;20.30;;;;;;;15.53;100.00;101135.38;4999909;28;20080;-49
2023/10/12 02:36:59;;;;;;;28.33;21.77;;;;;;;15.51;100.00;101143.56;5001744;28;20026;-50
2023/10/12 02:39:26;;;;;;;26.95;20.95;;;;;;;15.51;100.00;101132.03;5000139;28;20050;-49
2023/10/12 02:42:03;;;;;;;29.52;20.30;;;;;;;15.50;100.00;101133.00;4994746;28;20023;-50
2023/10/12 02:44:33;;;;;;;27.10;20.45;;;;;;;15.48;100.00;101143.00;5001832;28;20064;-50
2023/10/12 02:47:04;;;;;;;26.90;19.20;;;;;;;15.46;100.00;101140.47;4998335;28;20042;-50
2023/10/12 02:49:35;;;;;;;26.27;19.52;;;;;;;15.46;100.00;101140.47;4998885;28;20391;-50
2023/10/12 02:52:06;;;;;;;25.13;20.08;;;;;;;15.45;100.00;101141.44;5013838;28;20076;-51
2023/10/12 02:54:49;;;;;;;26.65;19.58;;;;;;;15.43;100.00;101140.75;4996701;28;20447;-50
2023/10/12 02:57:14;;;;;;;27.13;19.85;;;;;;;15.43;100.00;101137.25;4999176;28;20073;-49
2023/10/12 02:59:40;;;;;;;29.00;19.42;;;;;;;15.43;100.00;101134.56;4995244;28;20054;-50
2023/10/12 03:02:19;;;;;;;24.90;19.67;;;;;;;15.39;100.00;101130.47;4998695;28;20437;-50
2023/10/12 03:04:45;;;;;;;30.38;19.80;;;;;;;15.38;100.00;101126.94;4999678;28;20027;-49
2023/10/12 03:07:13;;;;;;;28.83;20.05;;;;;;;15.39;100.00;101130.47;4999832;28;20396;-50
2023/10/12 03:09:43;;;;;;;25.77;19.42;;;;;;;15.38;100.00;101136.81;4995329;28;20069;-49
2023/10/12 03:12:09;;;;;;;26.23;19.08;;;;;;;15.34;100.00;101133.59;4997232;28;20026;-49
2023/10/12 03:14:35;;;;;;;24.80;19.85;;;;;;;15.33;100.00;101131.88;4994808;28;20122;-51
2023/10/12 03:17:03;;;;;;;27.80;19.77;;;;;;;15.31;100.00;101142.72;4999165;28;20097;-49
2023/10/12 03:19:28;;;;;;;26.85;18.95;;;;;;;15.30;100.00;101124.97;4996666;28;20545;-50
2023/10/12 03:22:03;;;;;;;30.27;19.20;;;;;;;15.29;100.00;101136.69;5010429;28;20022;-49
2023/10/12 03:24:43;;;;;;;26.48;18.75;;;;;;;15.27;100.00;101125.28;4997976;28;20038;-51
2023/10/12 03:27:13;;;;;;;26.65;18.75;;;;;;;15.27;100.00;101135.13;4997540;28;20026;-49
2023/10/12 03:29:51;;;;;;;23.10;17.85;;;;;;;15.25;100.00;101129.91;5009509;28;20030;-49
2023/10/12 03:32:20;;;;;;;27.90;18.50;;;;;;;15.25;100.00;101129.06;4998072;28;20242;-49
2023/10/12 03:37:14;;;;;;;27.00;17.70;;;;;;;15.23;100.00;101125.69;4993441;28;20103;-50
2023/10/12 03:42:41;;;;;;;23.75;16.80;;;;;;;15.20;100.00;101137.50;4996361;28;20041;-53
2023/10/12 03:45:08;;;;;;;23.23;17.27;;;;;;;15.20;100.00;101145.53;4996976;28;20061;-53
2023/10/12 03:47:46;;;;;;;26.00;16.75;;;;;;;15.18;100.00;101155.53;4999644;28;20034;-53
2023/10/12 03:50:16;;;;;;;22.95;17.48;;;;;;;15.17;100.00;101146.69;4994524;28;20389;-53
2023/10/12 03:52:51;;;;;;;25.27;16.35;;;;;;;15.17;100.00;101152.03;4997115;28;20097;-52
2023/10/12 03:55:34;;;;;;;23.38;16.08;;;;;;;15.14;100.00;101146.13;4998163;28;20037;-53
2023/10/12 03:58:00;;;;;;;22.88;15.40;;;;;;;15.12;100.00;101142.72;4997254;28;20108;-52
2023/10/12 04:00:32;;;;;;;21.52;15.77;;;;;;;15.12;100.00;101140.91;4997366;28;20121;-51
2023/10/12 04:02:58;;;;;;;19.33;15.77;;;;;;;15.10;100.00;101156.22;4994057;28;20027;-53
2023/10/12 04:21:33;;;;;;;22.80;17.00;;;;;;;15.04;100.00;101161.28;5000396;28;20112;-53
2023/10/12 04:29:39;;;;;;;23.70;17.70;;;;;;;15.04;100.00;101170.19;4999091;28;20034;-50
2023/10/12 04:32:09;;;;;;;25.58;16.58;;;;;;;15.05;100.00;101171.03;5003846;28;20514;-49
2023/10/12 04:34:46;;;;;;;23.05;16.70;;;;;;;15.04;100.00;101161.28;5014782;28;20030;-49
2023/10/12 04:37:12;;;;;;;23.35;17.27;;;;;;;15.03;100.00;101159.63;4998963;28;20535;-49
2023/10/12 04:39:37;;;;;;;21.63;16.92;;;;;;;15.02;100.00;101163.28;4999847;28;20065;-50
2023/10/12 04:42:20;;;;;;;22.45;16.60;;;;;;;15.02;100.00;101166.81;4999598;28;20023;-49
2023/10/12 04:44:52;;;;;;;22.65;16.08;;;;;;;15.01;100.00;101169.63;5000744;28;20062;-49
2023/10/12 04:47:22;;;;;;;22.67;17.15;;;;;;;15.00;100.00;101174.09;4998522;28;20033;-49
2023/10/12 04:52:24;;;;;;;22.50;16.60;;;;;;;15.00;100.00;101182.13;5002590;28;20053;-48
2023/10/12 04:57:26;;;;;;;23.52;15.85;;;;;;;14.99;100.00;101170.59;4999302;28;20167;-51
2023/10/12 05:02:57;;;;;;;22.13;16.25;;;;;;;14.97;100.00;101175.25;4998584;28;20095;-49
2023/10/12 05:07:53;;;;;;;24.02;15.70;;;;;;;14.97;100.00;101198.44;4997228;28;20381;-49
2023/10/12 05:13:06;;;;;;;22.50;16.08;;;;;;;14.98;100.00;101208.19;5000225;28;20091;-49
2023/10/12 05:18:17;;;;;;;23.35;15.52;;;;;;;14.98;100.00;101219.72;5001319;28;20432;-49
2023/10/12 05:20:43;;;;;;;20.67;16.08;;;;;;;14.98;100.00;101221.56;4995585;28;20022;-50
2023/10/12 05:23:10;;;;;;;24.58;15.45;;;;;;;14.99;100.00;101217.91;5002351;28;20048;-50
2023/10/12 05:25:48;;;;;;;23.05;16.48;;;;;;;14.98;100.00;101213.53;4999169;28;20023;-50
2023/10/12 05:28:18;;;;;;;23.08;15.57;;;;;;;14.96;100.00;101211.00;5002710;28;20116;-50
2023/10/12 05:30:50;;;;;;;23.60;15.65;;;;;;;14.96;100.00;101212.81;4998994;28;20035;-50
2023/10/12 05:36:10;;;;;;;19.33;14.63;;;;;;;14.97;100.00;101211.81;5001639;28;20130;-50
2023/10/12 05:38:48;;;;;;;25.70;15.18;;;;;;;14.97;100.00;101220.72;4998308;28;20023;-50
2023/10/12 05:41:21;;;;;;;23.23;15.32;;;;;;;14.98;100.00;101209.00;4998970;28;20026;-49
2023/10/12 05:43:46;;;;;;;24.05;15.68;;;;;;;14.96;100.00;101219.00;4996195;28;20061;-50
2023/10/12 05:46:13;;;;;;;23.05;14.70;;;;;;;14.99;100.00;101217.91;5000061;28;20499;-51
2023/10/12 05:48:46;;;;;;;22.15;14.52;;;;;;;14.98;100.00;101219.72;4995247;28;20070;-51
2023/10/12 05:51:18;;;;;;;18.77;13.35;;;;;;;14.99;100.00;101234.78;5007284;28;20036;-51
2023/10/12 05:53:44;;;;;;;21.27;13.80;;;;;;;14.99;100.00;101234.78;4999626;28;20550;-50
2023/10/12 05:56:09;;;;;;;22.73;13.80;;;;;;;14.99;100.00;101241.97;4997651;28;20034;-50
2023/10/12 05:58:38;;;;;;;19.80;14.68;;;;;;;14.98;100.00;101240.28;4993877;28;20072;-49
2023/10/12 06:01:08;;;;;;;22.73;14.07;;;;;;;14.99;100.00;101247.34;5004403;28;20429;-56
2023/10/12 06:03:36;;;;;;;20.50;14.32;;;;;;;14.98;100.00;101243.78;4996368;28;20047;-52
2023/10/12 06:06:02;;;;;;;20.63;14.30;;;;;;;14.97;100.00;101250.13;4998664;28;20030;-51
2023/10/12 06:08:28;;;;;;;21.83;13.95;;;;;;;14.96;100.00;101240.41;4999103;28;20516;-50
2023/10/12 06:10:54;;;;;;;18.77;14.07;;;;;;;14.97;100.00;101243.91;4999772;28;20026;-51
2023/10/12 06:13:23;;;;;;;19.92;13.90;;;;;;;14.97;100.00;101254.63;4993255;28;20023;-50
2023/10/12 06:15:53;;;;;;;22.35;13.20;;;;;;;14.98;100.00;101254.50;4994599;28;20042;-54
2023/10/12 06:18:21;;;;;;;21.50;13.23;;;;;;;14.97;100.00;101255.50;5003212;28;20030;-51
2023/10/12 06:20:58;;;;;;;25.15;14.80;;;;;;;14.95;100.00;101252.13;4996315;28;20038;-51
2023/10/12 06:23:24;;;;;;;19.25;13.52;;;;;;;14.94;100.00;101261.09;5001770;28;20151;-50
2023/10/12 06:25:49;;;;;;;21.85;13.80;;;;;;;14.95;100.00;101262.81;5000503;28;20082;-52
2023/10/12 06:28:17;;;;;;;22.48;13.93;;;;;;;14.96;100.00;101259.13;4996593;28;20429;-51
2023/10/12 06:30:46;;;;;;;22.30;14.13;;;;;;;14.95;100.00;101260.13;4999731;28;20056;-52
2023/10/12 06:33:15;;;;;;;24.02;14.02;;;;;;;14.96;100.00;101263.66;4997511;28;20030;-52
2023/10/12 06:36:22;;;;;;;23.02;14.93;;;;;;;14.93;100.00;101264.75;4998763;28;20034;-52
2023/10/12 06:38:39;;;;;;;19.42;12.95;;;;;;;14.95;100.00;101265.47;4998831;28;20069;-51
2023/10/12 06:43:57;;;;;;;24.00;13.65;;;;;;;14.93;100.00;101263.91;4994731;28;20511;-51
2023/10/12 06:46:27;;;;;;;22.27;14.35;;;;;;;14.92;100.00;101262.22;4993345;28;20056;-52
2023/10/12 06:48:58;;;;;;;19.58;13.50;;;;;;;14.92;100.00;101259.53;4995851;28;20041;-51
2023/10/12 06:51:28;;;;;;;19.15;13.60;;;;;;;14.91;100.00;101266.72;4996688;28;20026;-51
2023/10/12 06:54:06;;;;;;;22.60;14.15;;;;;;;14.91;100.00;101274.75;4995829;28;20018;-52
2023/10/12 06:56:31;;;;;;;24.92;14.38;;;;;;;14.92;100.00;101281.81;4994377;28;20031;-52
2023/10/12 07:04:25;;;;;;;21.02;13.85;;;;;;;14.90;100.00;101280.22;4994155;28;20383;-55
2023/10/12 07:06:57;;;;;;;22.08;13.25;;;;;;;14.90;100.00;101285.56;4997885;28;20385;-55
2023/10/12 07:12:02;;;;;;;19.48;13.65;;;;;;;14.92;100.00;101286.28;4995259;28;20042;-55
2023/10/12 07:14:37;;;;;;;22.98;14.95;;;;;;;14.91;100.00;101285.44;4995763;28;20023;-54
2023/10/12 07:17:09;;;;;;;24.83;14.30;;;;;;;14.91;100.00;101298.81;5004798;28;20026;-54
2023/10/12 07:19:35;;;;;;;23.92;13.75;;;;;;;14.91;100.00;101297.97;4993882;28;20040;-51
2023/10/12 07:22:01;;;;;;;23.90;14.23;;;;;;;14.93;100.00;101298.69;4996582;28;20033;-52
2023/10/12 07:24:30;;;;;;;24.45;13.45;;;;;;;14.92;100.00;101299.66;4998791;28;20022;-51
2023/10/12 07:27:09;;;;;;;22.02;14.05;;;;;;;14.92;100.00;101310.34;4996471;28;20076;-51
2023/10/12 07:29:39;;;;;;;;;;;;;;;15.01;100.00;101314.91;4998207;28;20476;-52
2023/10/12 07:32:18;;;;;;;20.88;14.15;;;;;;;14.96;100.00;101309.13;4995099;28;19989;-50
2023/10/12 07:34:47;;;;;;;22.15;14.75;;;;;;;14.95;100.00;101310.97;4993101;28;20069;-53
2023/10/12 07:37:13;;;;;;;23.25;14.05;;;;;;;14.96;100.00;101311.78;4996694;28;20061;-54
2023/10/12 07:39:42;;;;;;;25.27;14.30;;;;;;;14.96;100.00;101323.31;4998057;28;20458;-54
2023/10/12 07:42:12;;;;;;;21.38;14.90;;;;;;;14.98;100.00;101312.50;4992494;28;20096;-53
2023/10/12 07:44:41;;;;;;;22.63;14.95;;;;;;;14.97;100.00;101316.13;4994583;28;20053;-50
2023/10/12 07:47:18;;;;;;;21.27;13.45;;;;;;;14.97;100.00;101314.34;4998391;28;20022;-54
2023/10/12 07:49:57;;;;;;;21.40;13.93;;;;;;;14.99;100.00;101319.56;4973063;28;20058;-55
2023/10/12 07:52:23;;;;;;;23.52;13.80;;;;;;;14.98;100.00;101304.47;4998151;28;20215;-53
2023/10/12 07:57:18;;;;;;;21.80;14.43;;;;;;;15.03;100.00;101312.94;4995571;28;20509;-55
2023/10/12 07:59:59;;;;;;;26.70;14.68;;;;;;;15.05;100.00;101321.66;4996486;28;20034;-53
2023/10/12 08:10:48;;;;;;;22.67;14.77;;;;;;;15.09;100.00;101307.06;4994854;28;20069;-54
2023/10/12 08:21:26;;;;;;;20.95;13.75;;;;;;;15.22;100.00;101303.28;4995898;28;20095;-54
2023/10/12 08:24:09;;;;;;;18.33;13.95;;;;;;;15.25;100.00;101311.88;4999643;28;20034;-52
2023/10/12 08:30:23;;;;;;;20.63;14.93;;;;;;;15.33;100.00;101319.22;4993765;28;20087;-54
2023/10/12 08:39:49;;;;;;;23.35;15.02;;;;;;;15.62;100.00;101316.63;4996217;28;20042;-50
2023/10/12 08:45:08;;;;;;;24.70;15.25;;;;;;;15.77;100.00;101321.56;4996538;28;20412;-50
2023/10/12 08:52:27;;;;;;;23.55;14.85;;;;;;;15.86;100.00;101328.78;4990895;28;20043;-51
2023/10/12 08:54:58;;;;;;;20.92;14.23;;;;;;;15.88;100.00;101346.41;4994826;28;20026;-50
2023/10/12 08:58:03;;;;;;;26.85;15.07;;;;;;;15.96;100.00;101351.06;4997986;28;20038;-50
2023/10/12 09:05:46;;;;;;;24.45;14.25;;;;;;;16.03;100.00;101340.63;4996740;28;20121;-51
2023/10/12 09:10:54;;;;;;;19.30;13.55;;;;;;;16.03;100.00;101340.63;5016915;28;20383;-53
2023/10/12 09:13:27;;;;;;;16.90;13.55;;;;;;;16.05;100.00;101341.34;5002835;28;20033;-50
2023/10/12 09:15:55;;;;;;;19.48;14.55;;;;;;;16.09;100.00;101338.22;4994813;28;20043;-50
2023/10/12 09:18:26;;;;;;;18.27;12.68;;;;;;;16.09;100.00;101348.13;4996859;28;20030;-50
2023/10/12 09:23:46;;;;;;;17.25;13.18;;;;;;;16.17;100.00;101344.72;5000927;28;20520;-51
2023/10/12 09:36:29;;;;;;;17.75;13.05;;;;;;;16.20;100.00;101337.22;4997268;28;20044;-52
2023/10/12 09:38:56;;;;;;;19.23;13.30;;;;;;;16.21;100.00;101335.41;4999290;28;20034;-50
2023/10/12 09:41:28;;;;;;;19.42;12.18;;;;;;;16.22;100.00;101339.75;5004656;28;20025;-50
2023/10/12 09:44:00;;;;;;;20.83;13.45;;;;;;;16.22;100.00;101337.94;5004311;28;20473;-48
2023/10/12 09:46:27;;;;;;;20.52;13.18;;;;;;;16.24;100.00;101335.97;5003684;28;20500;-48
2023/10/12 09:49:06;;;;;;;18.38;12.52;;;;;;;16.27;100.00;101334.84;5007851;28;20106;-52
2023/10/12 09:51:36;;;;;;;21.90;13.23;;;;;;;16.27;100.00;101329.50;5003903;28;20042;-48
2023/10/12 09:54:05;;;;;;;20.05;12.93;;;;;;;16.27;100.00;101334.84;5007551;28;20041;-48
2023/10/12 09:56:45;;;;;;;20.48;13.15;;;;;;;16.30;100.00;101333.69;5005605;28;20042;-52
2023/10/12 09:59:18;;;;;;;16.40;12.43;;;;;;;16.32;100.00;101327.22;5011194;28;20025;-50
2023/10/12 10:01:50;;;;;;;20.55;13.52;;;;;;;16.30;100.00;101323.81;5004176;28;20030;-51
2023/10/12 10:07:15;;;;;;;17.88;12.90;;;;;;;16.34;100.00;101327.91;5004848;28;20380;-49
2023/10/12 10:10:05;;;;;;;18.95;13.15;;;;;;;16.39;100.00;101336.38;5014062;28;20034;-50
2023/10/12 10:12:35;;;;;;;18.42;13.00;;;;;;;16.37;100.00;101326.78;5009484;28;20041;-49
2023/10/12 10:15:10;;;;;;;22.13;13.35;;;;;;;16.38;100.00;101320.44;5003718;28;20041;-48
2023/10/12 10:17:46;;;;;;;17.95;12.68;;;;;;;16.40;100.00;101318.44;5011943;28;20044;-48
2023/10/12 10:20:46;;;;;;;20.55;13.57;;;;;;;16.40;100.00;101305.91;5004758;28;20026;-49
2023/10/12 10:23:03;;;;;;;18.20;13.18;;;;;;;16.45;100.00;101308.13;5014226;28;20508;-49
2023/10/12 10:25:43;;;;;;;16.23;12.63;;;;;;;16.49;100.00;101306.00;5011175;28;20388;-50
2023/10/12 10:28:13;;;;;;;21.00;13.50;;;;;;;16.49;100.00;101306.00;5005154;28;20035;-49
2023/10/12 10:30:49;;;;;;;19.15;12.30;;;;;;;16.51;100.00;101304.88;5006927;28;20034;-52
2023/10/12 10:33:17;;;;;;;20.92;13.10;;;;;;;16.56;100.00;101294.56;5006095;28;20444;-50
2023/10/12 10:36:05;;;;;;;21.10;12.95;;;;;;;16.64;100.00;101291.16;5000695;28;20037;-49
2023/10/12 10:38:33;;;;;;;16.00;11.70;;;;;;;16.64;100.00;101297.34;5007876;28;20054;-47
2023/10/12 10:41:07;;;;;;;19.92;12.60;;;;;;;16.70;100.00;101295.91;5006304;28;20030;-48
2023/10/12 10:43:37;;;;;;;16.95;11.50;;;;;;;16.77;100.00;101289.00;5002763;28;20056;-49
2023/10/12 10:46:13;;;;;;;17.85;12.07;;;;;;;16.85;100.00;101292.78;5005575;28;20075;-48
2023/10/12 10:48:39;;;;;;;16.50;11.68;;;;;;;16.88;100.00;101290.66;5025703;28;20025;-47
2023/10/12 10:51:18;;;;;;;18.92;12.52;;;;;;;16.93;100.00;101290.22;5015698;28;20121;-48
2023/10/12 10:53:50;;;;;;;18.40;12.32;;;;;;;16.99;100.00;101286.94;5006076;28;20461;-48
2023/10/12 10:56:16;;;;;;;18.23;11.18;;;;;;;17.05;100.00;101288.19;5007147;28;20041;-47
2023/10/12 10:58:45;;;;;;;17.95;11.88;;;;;;;17.05;100.00;101291.69;5011816;28;20022;-47
2023/10/12 11:01:12;;;;;;;18.20;12.23;;;;;;;17.12;100.00;101287.44;5036513;28;20093;-51
2023/10/12 11:03:39;;;;;;;18.38;10.98;;;;;;;17.13;100.00;101302.53;5002588;28;20116;-47
2023/10/12 11:06:08;;;;;;;18.08;11.60;;;;;;;17.14;100.00;101288.13;5009945;28;20034;-51
2023/10/12 11:08:34;;;;;;;21.45;11.95;;;;;;;17.17;100.00;101282.47;5011133;28;20044;-47
2023/10/12 11:13:34;;;;;;;19.83;11.68;;;;;;;17.24;100.00;101271.97;5016738;28;20048;-47
2023/10/12 11:16:04;;;;;;;21.17;12.90;;;;;;;17.28;100.00;101269.84;5003407;28;20026;-47
2023/10/12 11:18:31;;;;;;;20.05;12.75;;;;;;;17.30;100.00;101274.06;5017466;28;20389;-49
2023/10/12 11:21:03;;;;;;;20.05;12.48;;;;;;;17.26;100.00;101269.97;5010797;28;20033;-47
2023/10/12 11:23:28;;;;;;;16.63;11.52;;;;;;;17.27;100.00;101277.06;5006700;28;20022;-47
2023/10/12 11:26:04;;;;;;;21.42;11.75;;;;;;;17.30;100.00;101281.25;5028198;28;20151;-47
2023/10/12 11:28:30;;;;;;;19.67;11.93;;;;;;;17.30;100.00;101278.56;5008262;28;20030;-48
2023/10/12 11:31:07;;;;;;;18.08;11.85;;;;;;;17.31;100.00;101286.47;5005621;28;20029;-49
2023/10/12 11:33:36;;;;;;;21.40;11.32;;;;;;;17.31;100.00;101281.09;5007121;28;20038;-48
2023/10/12 11:36:03;;;;;;;;;;;;;;;17.39;100.00;101278.50;5000242;28;20097;-47
2023/10/12 11:38:29;;;;;;;16.52;10.30;;;;;;;17.28;100.00;101269.84;5008516;28;19921;-47
2023/10/12 11:40:58;;;;;;;12.73;9.75;;;;;;;17.28;100.00;101269.84;5005007;28;20034;-48
2023/10/12 11:43:29;;;;;;;;;;;;;;;17.36;100.00;101268.06;5002313;28;20034;-47
2023/10/12 11:45:56;;;;;;;16.70;9.82;;;;;;;17.29;100.00;101274.22;5004538;28;19924;-47
2023/10/12 11:48:24;;;;;;;14.77;9.10;;;;;;;17.27;100.00;101266.31;5045480;28;20042;-47
2023/10/12 11:50:50;;;;;;;16.63;9.30;;;;;;;17.28;100.00;101257.25;5008793;28;20068;-46
2023/10/12 11:53:17;;;;;;;18.38;8.68;;;;;;;17.28;100.00;101265.31;5017066;28;20022;-47
2023/10/12 11:55:43;;;;;;;16.00;8.68;;;;;;;17.29;100.00;101267.00;5009100;28;20022;-46
2023/10/12 11:58:09;;;;;;;13.55;9.32;;;;;;;17.31;100.00;101259.63;5014237;28;20022;-47
2023/10/12 12:00:37;;;;;;;15.65;8.95;;;;;;;17.33;100.00;101252.25;5005480;28;20499;-47
2023/10/12 12:03:03;;;;;;;12.93;8.27;;;;;;;17.34;100.00;101253.97;5002584;28;20108;-47
2023/10/12 12:05:29;;;;;;;12.05;8.20;;;;;;;17.36;100.00;101251.97;5011234;28;20045;-46
2023/10/12 12:07:57;;;;;;;13.90;8.07;;;;;;;17.34;100.00;101253.97;5000723;28;20035;-48
2023/10/12 12:10:37;;;;;;;16.88;8.50;;;;;;;17.33;100.00;101248.75;5004778;28;20026;-48
2023/10/12 12:13:04;;;;;;;13.23;8.20;;;;;;;17.35;100.00;101252.97;5001820;28;20461;-48
2023/10/12 12:15:29;;;;;;;14.10;8.95;;;;;;;17.33;100.00;101254.13;5012269;28;20040;-47
2023/10/12 12:17:55;;;;;;;11.27;8.00;;;;;;;17.34;100.00;101256.66;5019345;28;20093;-47
2023/10/12 12:20:23;;;;;;;15.32;8.50;;;;;;;17.29;100.00;101248.22;5010184;28;20019;-47
2023/10/12 12:22:48;;;;;;;16.55;8.82;;;;;;;17.32;100.00;101249.72;5005727;28;20026;-46
2023/10/12 12:25:18;;;;;;;15.38;8.73;;;;;;;17.29;100.00;101237.47;5005246;28;20023;-47
2023/10/12 12:27:48;;;;;;;16.02;8.35;;;;;;;17.31;100.00;101216.69;5006816;28;20062;-47
2023/10/12 12:30:33;;;;;;;12.20;8.65;;;;;;;17.31;100.00;101224.72;5007280;28;20056;-47
2023/10/12 12:33:03;;;;;;;16.48;8.48;;;;;;;17.28;100.00;101216.13;5013574;28;20045;-48
2023/10/12 12:35:29;;;;;;;14.98;8.48;;;;;;;17.28;100.00;101210.78;5012612;28;20452;-48
2023/10/12 12:38:00;;;;;;;14.38;8.77;;;;;;;17.26;100.00;101202.88;5011041;28;20082;-48
2023/10/12 12:40:30;;;;;;;15.43;8.82;;;;;;;17.20;100.00;101198.97;5006597;28;20487;-47
2023/10/12 12:42:56;;;;;;;18.33;8.70;;;;;;;17.23;100.00;101191.59;5006698;28;20022;-47
2023/10/12 12:45:22;;;;;;;18.00;9.27;;;;;;;17.18;100.00;101202.78;5012813;28;20531;-47
2023/10/12 12:47:47;;;;;;;14.52;8.90;;;;;;;17.17;100.00;101210.00;5011852;28;20049;-47
2023/10/12 12:50:12;;;;;;;14.30;8.77;;;;;;;17.17;100.00;101201.13;5002860;28;20030;-47
2023/10/12 12:52:38;;;;;;;14.67;9.93;;;;;;;17.16;100.00;101208.31;5009463;28;20026;-48
2023/10/12 12:55:10;;;;;;;14.00;9.32;;;;;;;17.14;100.00;101215.66;5004903;28;20783;-50
2023/10/12 12:57:38;;;;;;;16.33;9.52;;;;;;;17.15;100.00;101211.13;5006271;28;20038;-50
2023/10/12 13:00:08;;;;;;;14.15;9.43;;;;;;;17.14;100.00;101212.16;5003826;28;20553;-51
2023/10/12 13:02:33;;;;;;;19.17;9.68;;;;;;;17.09;100.00;101209.06;5004111;28;20034;-50
2023/10/12 13:05:00;;;;;;;17.43;10.10;;;;;;;17.08;100.00;101216.25;5008566;28;20049;-50
2023/10/12 13:07:27;;;;;;;12.93;9.88;;;;;;;17.04;100.00;101217.56;5010497;28;20319;-49
2023/10/12 13:09:54;;;;;;;13.90;9.48;;;;;;;17.03;100.00;101215.88;5008088;28;20089;-47
2023/10/12 13:12:19;;;;;;;14.02;9.63;;;;;;;17.01;100.00;101204.47;5012800;28;20057;-49
2023/10/12 13:14:45;;;;;;;22.93;9.83;;;;;;;16.97;100.00;101211.97;5011901;28;20026;-47
2023/10/12 13:17:12;;;;;;;18.38;10.43;;;;;;;16.95;100.00;101207.72;5012609;28;20388;-46
2023/10/12 13:19:37;;;;;;;13.75;10.13;;;;;;;16.95;100.00;101205.91;5010576;28;20031;-47
2023/10/12 13:22:03;;;;;;;17.25;9.48;;;;;;;16.96;100.00;101212.13;5012768;28;20121;-47
2023/10/12 13:24:35;;;;;;;18.55;10.02;;;;;;;16.94;100.00;101204.22;5003458;28;20114;-47
2023/10/12 13:27:08;;;;;;;17.15;10.65;;;;;;;16.98;100.00;101210.13;5009675;28;20087;-47
2023/10/12 13:29:36;;;;;;;15.18;9.88;;;;;;;17.00;100.00;101206.31;5009865;28;20060;-48